sensor_id;sensor_type;location;lat;lon;timestamp;P1;durP1;ratioP1;P2;durP2;ratioP2
49109;SDS011;34921;52.320;16.142;2022-09-09T00:00:33;8.38;;;5.60;;
49109;SDS011;34921;52.320;16.142;2022-09-09T00:03:26;7.12;;;5.42;;
49109;SDS011;34921;52.320;16.142;2022-09-09T00:05:56;7.87;;;5.97;;
49109;SDS011;34921;52.320;16.142;2022-09-09T00:11:40;7.30;;;5.95;;
49109;SDS011;34921;52.320;16.142;2022-09-09T00:16:59;7.85;;;5.75;;
49109;SDS011;34921;52.320;16.142;2022-09-09T00:19:39;8.68;;;6.65;;
49109;SDS011;34921;52.320;16.142;2022-09-09T00:22:20;9.53;;;5.90;;
49109;SDS011;34921;52.320;16.142;2022-09-09T00:24:55;7.83;;;5.58;;
49109;SDS011;34921;52.320;16.142;2022-09-09T00:27:29;6.58;;;5.15;;
49109;SDS011;34921;52.320;16.142;2022-09-09T00:30:17;7.78;;;6.00;;
49109;SDS011;34921;52.320;16.142;2022-09-09T00:32:46;9.43;;;5.83;;
49109;SDS011;34921;52.320;16.142;2022-09-09T00:35:30;8.95;;;5.15;;
49109;SDS011;34921;52.320;16.142;2022-09-09T00:38:09;8.05;;;5.62;;
49109;SDS011;34921;52.320;16.142;2022-09-09T00:40:41;8.68;;;5.00;;
49109;SDS011;34921;52.320;16.142;2022-09-09T00:43:26;8.63;;;5.20;;
49109;SDS011;34921;52.320;16.142;2022-09-09T00:52:01;6.83;;;5.20;;
49109;SDS011;34921;52.320;16.142;2022-09-09T00:57:23;5.92;;;5.20;;
49109;SDS011;34921;52.320;16.142;2022-09-09T01:08:25;6.08;;;5.17;;
49109;SDS011;34921;52.320;16.142;2022-09-09T01:11:02;6.70;;;5.40;;
49109;SDS011;34921;52.320;16.142;2022-09-09T01:13:34;6.83;;;4.75;;
49109;SDS011;34921;52.320;16.142;2022-09-09T01:16:03;5.65;;;4.65;;
49109;SDS011;34921;52.320;16.142;2022-09-09T01:18:32;6.87;;;4.62;;
49109;SDS011;34921;52.320;16.142;2022-09-09T01:28:42;9.10;;;4.50;;
49109;SDS011;34921;52.320;16.142;2022-09-09T01:31:11;5.90;;;4.70;;
49109;SDS011;34921;52.320;16.142;2022-09-09T01:33:41;9.90;;;4.92;;
49109;SDS011;34921;52.320;16.142;2022-09-09T01:36:08;7.28;;;4.78;;
49109;SDS011;34921;52.320;16.142;2022-09-09T01:38:35;5.58;;;4.58;;
49109;SDS011;34921;52.320;16.142;2022-09-09T01:41:02;7.37;;;4.97;;
49109;SDS011;34921;52.320;16.142;2022-09-09T01:43:29;6.50;;;4.80;;
49109;SDS011;34921;52.320;16.142;2022-09-09T01:45:56;4.92;;;4.35;;
49109;SDS011;34921;52.320;16.142;2022-09-09T01:48:25;5.47;;;4.57;;
49109;SDS011;34921;52.320;16.142;2022-09-09T01:50:53;6.58;;;4.70;;
49109;SDS011;34921;52.320;16.142;2022-09-09T01:53:20;6.28;;;4.80;;
49109;SDS011;34921;52.320;16.142;2022-09-09T01:55:59;6.62;;;4.60;;
49109;SDS011;34921;52.320;16.142;2022-09-09T02:01:04;7.67;;;4.97;;
49109;SDS011;34921;52.320;16.142;2022-09-09T02:03:36;7.60;;;5.53;;
49109;SDS011;34921;52.320;16.142;2022-09-09T02:06:10;6.80;;;5.10;;
49109;SDS011;34921;52.320;16.142;2022-09-09T02:08:46;6.67;;;4.92;;
49109;SDS011;34921;52.320;16.142;2022-09-09T02:11:19;6.67;;;4.85;;
49109;SDS011;34921;52.320;16.142;2022-09-09T02:13:47;6.30;;;4.67;;
49109;SDS011;34921;52.320;16.142;2022-09-09T02:16:24;6.22;;;5.42;;
49109;SDS011;34921;52.320;16.142;2022-09-09T02:19:06;7.15;;;5.60;;
49109;SDS011;34921;52.320;16.142;2022-09-09T02:21:39;8.25;;;6.45;;
49109;SDS011;34921;52.320;16.142;2022-09-09T02:24:08;12.90;;;9.68;;
49109;SDS011;34921;52.320;16.142;2022-09-09T02:26:37;14.00;;;11.22;;
49109;SDS011;34921;52.320;16.142;2022-09-09T02:29:08;14.70;;;12.15;;
49109;SDS011;34921;52.320;16.142;2022-09-09T02:31:38;18.98;;;15.32;;
49109;SDS011;34921;52.320;16.142;2022-09-09T02:34:05;20.20;;;17.27;;
49109;SDS011;34921;52.320;16.142;2022-09-09T02:36:36;22.32;;;17.05;;
49109;SDS011;34921;52.320;16.142;2022-09-09T02:39:05;20.75;;;16.42;;
49109;SDS011;34921;52.320;16.142;2022-09-09T02:41:37;21.07;;;15.88;;
49109;SDS011;34921;52.320;16.142;2022-09-09T02:44:08;21.37;;;15.50;;
49109;SDS011;34921;52.320;16.142;2022-09-09T02:52:13;21.20;;;17.07;;
49109;SDS011;34921;52.320;16.142;2022-09-09T02:54:44;23.42;;;17.65;;
49109;SDS011;34921;52.320;16.142;2022-09-09T02:57:12;19.15;;;15.35;;
49109;SDS011;34921;52.320;16.142;2022-09-09T02:59:57;18.48;;;15.03;;
49109;SDS011;34921;52.320;16.142;2022-09-09T03:02:24;17.65;;;13.55;;
49109;SDS011;34921;52.320;16.142;2022-09-09T03:04:51;15.72;;;13.60;;
49109;SDS011;34921;52.320;16.142;2022-09-09T03:07:17;16.57;;;14.20;;
49109;SDS011;34921;52.320;16.142;2022-09-09T03:09:44;15.85;;;11.97;;
49109;SDS011;34921;52.320;16.142;2022-09-09T03:12:11;11.93;;;10.50;;
49109;SDS011;34921;52.320;16.142;2022-09-09T03:14:38;10.88;;;8.53;;
49109;SDS011;34921;52.320;16.142;2022-09-09T03:17:05;10.18;;;8.43;;
49109;SDS011;34921;52.320;16.142;2022-09-09T03:19:31;11.33;;;8.33;;
49109;SDS011;34921;52.320;16.142;2022-09-09T03:21:58;10.45;;;7.97;;
49109;SDS011;34921;52.320;16.142;2022-09-09T03:24:24;8.83;;;6.20;;
49109;SDS011;34921;52.320;16.142;2022-09-09T03:26:51;7.03;;;5.80;;
49109;SDS011;34921;52.320;16.142;2022-09-09T03:29:17;7.12;;;5.45;;
49109;SDS011;34921;52.320;16.142;2022-09-09T03:31:44;6.17;;;4.97;;
49109;SDS011;34921;52.320;16.142;2022-09-09T03:34:10;7.50;;;5.78;;
49109;SDS011;34921;52.320;16.142;2022-09-09T03:36:36;10.28;;;5.87;;
49109;SDS011;34921;52.320;16.142;2022-09-09T03:39:03;7.87;;;4.85;;
49109;SDS011;34921;52.320;16.142;2022-09-09T03:41:29;6.53;;;4.80;;
49109;SDS011;34921;52.320;16.142;2022-09-09T03:43:56;6.95;;;4.70;;
49109;SDS011;34921;52.320;16.142;2022-09-09T03:46:23;6.33;;;4.72;;
49109;SDS011;34921;52.320;16.142;2022-09-09T03:48:50;6.28;;;4.90;;
49109;SDS011;34921;52.320;16.142;2022-09-09T03:51:18;8.10;;;6.15;;
49109;SDS011;34921;52.320;16.142;2022-09-09T03:53:44;10.48;;;8.20;;
49109;SDS011;34921;52.320;16.142;2022-09-09T03:56:11;10.85;;;8.80;;
49109;SDS011;34921;52.320;16.142;2022-09-09T03:58:37;14.15;;;9.75;;
49109;SDS011;34921;52.320;16.142;2022-09-09T04:01:05;12.93;;;10.63;;
49109;SDS011;34921;52.320;16.142;2022-09-09T04:03:36;10.98;;;9.60;;
49109;SDS011;34921;52.320;16.142;2022-09-09T04:06:03;10.48;;;8.35;;
49109;SDS011;34921;52.320;16.142;2022-09-09T04:08:30;9.95;;;8.68;;
49109;SDS011;34921;52.320;16.142;2022-09-09T04:11:01;9.78;;;8.50;;
49109;SDS011;34921;52.320;16.142;2022-09-09T04:13:30;9.70;;;7.80;;
49109;SDS011;34921;52.320;16.142;2022-09-09T04:15:57;10.15;;;8.23;;
49109;SDS011;34921;52.320;16.142;2022-09-09T04:18:24;10.23;;;8.00;;
49109;SDS011;34921;52.320;16.142;2022-09-09T04:20:52;12.20;;;7.80;;
49109;SDS011;34921;52.320;16.142;2022-09-09T04:23:19;11.65;;;8.68;;
49109;SDS011;34921;52.320;16.142;2022-09-09T04:25:46;13.78;;;10.53;;
49109;SDS011;34921;52.320;16.142;2022-09-09T04:28:14;20.95;;;14.18;;
49109;SDS011;34921;52.320;16.142;2022-09-09T04:30:41;25.40;;;14.98;;
49109;SDS011;34921;52.320;16.142;2022-09-09T04:33:08;20.95;;;13.75;;
49109;SDS011;34921;52.320;16.142;2022-09-09T04:35:35;20.08;;;12.53;;
49109;SDS011;34921;52.320;16.142;2022-09-09T04:38:02;24.67;;;12.28;;
49109;SDS011;34921;52.320;16.142;2022-09-09T04:40:29;19.42;;;12.45;;
49109;SDS011;34921;52.320;16.142;2022-09-09T04:43:02;16.37;;;9.70;;
49109;SDS011;34921;52.320;16.142;2022-09-09T04:45:32;18.12;;;9.25;;
49109;SDS011;34921;52.320;16.142;2022-09-09T04:47:59;17.57;;;7.72;;
49109;SDS011;34921;52.320;16.142;2022-09-09T04:50:25;14.33;;;7.25;;
49109;SDS011;34921;52.320;16.142;2022-09-09T04:52:52;10.78;;;7.85;;
49109;SDS011;34921;52.320;16.142;2022-09-09T04:55:18;10.78;;;6.22;;
49109;SDS011;34921;52.320;16.142;2022-09-09T04:57:44;10.72;;;5.70;;
49109;SDS011;34921;52.320;16.142;2022-09-09T05:00:10;7.80;;;5.47;;
49109;SDS011;34921;52.320;16.142;2022-09-09T05:02:39;10.05;;;5.17;;
49109;SDS011;34921;52.320;16.142;2022-09-09T05:05:06;6.58;;;5.00;;
49109;SDS011;34921;52.320;16.142;2022-09-09T05:07:33;5.73;;;4.80;;
49109;SDS011;34921;52.320;16.142;2022-09-09T05:09:59;6.70;;;4.80;;
49109;SDS011;34921;52.320;16.142;2022-09-09T05:12:25;7.60;;;5.10;;
49109;SDS011;34921;52.320;16.142;2022-09-09T05:14:52;6.97;;;4.47;;
49109;SDS011;34921;52.320;16.142;2022-09-09T05:17:18;11.50;;;5.67;;
49109;SDS011;34921;52.320;16.142;2022-09-09T05:19:44;6.75;;;4.72;;
49109;SDS011;34921;52.320;16.142;2022-09-09T05:22:10;8.05;;;5.12;;
49109;SDS011;34921;52.320;16.142;2022-09-09T05:24:37;7.58;;;5.00;;
49109;SDS011;34921;52.320;16.142;2022-09-09T05:27:04;9.03;;;4.50;;
49109;SDS011;34921;52.320;16.142;2022-09-09T05:29:32;8.00;;;5.27;;
49109;SDS011;34921;52.320;16.142;2022-09-09T05:32:01;7.72;;;5.53;;
49109;SDS011;34921;52.320;16.142;2022-09-09T05:34:27;5.37;;;4.55;;
49109;SDS011;34921;52.320;16.142;2022-09-09T05:36:54;7.22;;;5.12;;
49109;SDS011;34921;52.320;16.142;2022-09-09T05:39:20;6.15;;;5.47;;
49109;SDS011;34921;52.320;16.142;2022-09-09T05:41:46;6.37;;;5.67;;
49109;SDS011;34921;52.320;16.142;2022-09-09T05:44:12;7.62;;;6.17;;
49109;SDS011;34921;52.320;16.142;2022-09-09T05:46:39;6.58;;;5.83;;
49109;SDS011;34921;52.320;16.142;2022-09-09T05:49:05;8.93;;;5.70;;
49109;SDS011;34921;52.320;16.142;2022-09-09T05:51:32;7.10;;;5.70;;
49109;SDS011;34921;52.320;16.142;2022-09-09T05:53:58;6.97;;;5.50;;
49109;SDS011;34921;52.320;16.142;2022-09-09T05:56:25;7.20;;;6.12;;
49109;SDS011;34921;52.320;16.142;2022-09-09T05:58:53;7.78;;;6.55;;
49109;SDS011;34921;52.320;16.142;2022-09-09T06:01:30;8.75;;;6.95;;
49109;SDS011;34921;52.320;16.142;2022-09-09T06:03:58;9.18;;;6.58;;
49109;SDS011;34921;52.320;16.142;2022-09-09T06:06:26;8.35;;;6.35;;
49109;SDS011;34921;52.320;16.142;2022-09-09T06:08:54;9.23;;;7.62;;
49109;SDS011;34921;52.320;16.142;2022-09-09T06:11:25;9.48;;;7.42;;
49109;SDS011;34921;52.320;16.142;2022-09-09T06:13:53;12.00;;;7.97;;
49109;SDS011;34921;52.320;16.142;2022-09-09T06:16:21;7.15;;;6.37;;
49109;SDS011;34921;52.320;16.142;2022-09-09T06:18:52;7.80;;;6.35;;
49109;SDS011;34921;52.320;16.142;2022-09-09T06:21:21;6.83;;;6.00;;
49109;SDS011;34921;52.320;16.142;2022-09-09T06:23:49;8.95;;;6.00;;
49109;SDS011;34921;52.320;16.142;2022-09-09T06:26:20;9.75;;;7.17;;
49109;SDS011;34921;52.320;16.142;2022-09-09T06:28:49;10.63;;;7.87;;
49109;SDS011;34921;52.320;16.142;2022-09-09T06:31:17;9.85;;;7.30;;
49109;SDS011;34921;52.320;16.142;2022-09-09T06:33:51;7.40;;;6.57;;
49109;SDS011;34921;52.320;16.142;2022-09-09T06:36:20;7.17;;;6.15;;
49109;SDS011;34921;52.320;16.142;2022-09-09T06:38:49;6.83;;;5.33;;
49109;SDS011;34921;52.320;16.142;2022-09-09T06:41:19;7.12;;;5.67;;
49109;SDS011;34921;52.320;16.142;2022-09-09T06:43:47;12.90;;;6.87;;
49109;SDS011;34921;52.320;16.142;2022-09-09T06:46:14;7.77;;;6.03;;
49109;SDS011;34921;52.320;16.142;2022-09-09T06:48:43;9.63;;;6.50;;
49109;SDS011;34921;52.320;16.142;2022-09-09T06:51:14;7.75;;;6.37;;
49109;SDS011;34921;52.320;16.142;2022-09-09T06:53:42;7.78;;;5.95;;
49109;SDS011;34921;52.320;16.142;2022-09-09T06:58:40;6.90;;;5.57;;
49109;SDS011;34921;52.320;16.142;2022-09-09T07:01:14;8.10;;;6.53;;
49109;SDS011;34921;52.320;16.142;2022-09-09T07:03:52;8.25;;;6.70;;
49109;SDS011;34921;52.320;16.142;2022-09-09T07:06:21;7.50;;;5.90;;
49109;SDS011;34921;52.320;16.142;2022-09-09T07:08:53;9.95;;;6.75;;
49109;SDS011;34921;52.320;16.142;2022-09-09T07:11:21;7.42;;;6.58;;
49109;SDS011;34921;52.320;16.142;2022-09-09T07:13:48;8.28;;;6.15;;
49109;SDS011;34921;52.320;16.142;2022-09-09T07:16:16;6.87;;;5.00;;
49109;SDS011;34921;52.320;16.142;2022-09-09T07:18:43;6.57;;;4.40;;
49109;SDS011;34921;52.320;16.142;2022-09-09T07:21:11;7.37;;;4.95;;
49109;SDS011;34921;52.320;16.142;2022-09-09T07:23:40;7.10;;;5.12;;
49109;SDS011;34921;52.320;16.142;2022-09-09T07:26:07;6.15;;;4.80;;
49109;SDS011;34921;52.320;16.142;2022-09-09T07:28:42;7.03;;;5.20;;
49109;SDS011;34921;52.320;16.142;2022-09-09T07:31:19;9.75;;;5.60;;
49109;SDS011;34921;52.320;16.142;2022-09-09T07:33:47;10.80;;;5.53;;
49109;SDS011;34921;52.320;16.142;2022-09-09T07:36:15;9.50;;;5.62;;
49109;SDS011;34921;52.320;16.142;2022-09-09T07:38:47;10.13;;;5.90;;
49109;SDS011;34921;52.320;16.142;2022-09-09T07:41:26;7.83;;;5.67;;
49109;SDS011;34921;52.320;16.142;2022-09-09T07:43:56;6.92;;;5.97;;
49109;SDS011;34921;52.320;16.142;2022-09-09T07:46:23;7.20;;;5.12;;
49109;SDS011;34921;52.320;16.142;2022-09-09T07:48:52;6.53;;;4.10;;
49109;SDS011;34921;52.320;16.142;2022-09-09T07:51:20;6.65;;;4.28;;
49109;SDS011;34921;52.320;16.142;2022-09-09T07:53:59;6.30;;;4.37;;
49109;SDS011;34921;52.320;16.142;2022-09-09T07:56:28;7.17;;;4.25;;
49109;SDS011;34921;52.320;16.142;2022-09-09T07:58:56;8.68;;;4.40;;
49109;SDS011;34921;52.320;16.142;2022-09-09T08:01:30;6.80;;;3.67;;
49109;SDS011;34921;52.320;16.142;2022-09-09T08:06:32;7.40;;;3.60;;
49109;SDS011;34921;52.320;16.142;2022-09-09T08:09:00;9.28;;;5.05;;
49109;SDS011;34921;52.320;16.142;2022-09-09T08:11:27;4.83;;;3.80;;
49109;SDS011;34921;52.320;16.142;2022-09-09T08:16:29;4.40;;;3.50;;
49109;SDS011;34921;52.320;16.142;2022-09-09T08:18:57;8.48;;;3.17;;
49109;SDS011;34921;52.320;16.142;2022-09-09T08:21:25;4.47;;;2.95;;
49109;SDS011;34921;52.320;16.142;2022-09-09T08:23:54;7.00;;;3.00;;
49109;SDS011;34921;52.320;16.142;2022-09-09T08:26:25;5.72;;;3.08;;
49109;SDS011;34921;52.320;16.142;2022-09-09T08:28:54;5.05;;;2.75;;
49109;SDS011;34921;52.320;16.142;2022-09-09T08:31:23;7.47;;;2.55;;
49109;SDS011;34921;52.320;16.142;2022-09-09T08:34:04;4.08;;;2.47;;
49109;SDS011;34921;52.320;16.142;2022-09-09T08:36:33;5.83;;;2.47;;
49109;SDS011;34921;52.320;16.142;2022-09-09T08:39:05;5.55;;;2.70;;
49109;SDS011;34921;52.320;16.142;2022-09-09T08:50:35;3.77;;;2.00;;
49109;SDS011;34921;52.320;16.142;2022-09-09T08:55:52;5.20;;;1.90;;
49109;SDS011;34921;52.320;16.142;2022-09-09T09:00:57;3.33;;;1.70;;
49109;SDS011;34921;52.320;16.142;2022-09-09T09:06:51;3.72;;;1.60;;
49109;SDS011;34921;52.320;16.142;2022-09-09T09:12:15;5.42;;;1.72;;
49109;SDS011;34921;52.320;16.142;2022-09-09T09:14:44;3.35;;;1.60;;
49109;SDS011;34921;52.320;16.142;2022-09-09T09:17:14;3.92;;;2.17;;
49109;SDS011;34921;52.320;16.142;2022-09-09T09:19:47;4.13;;;1.63;;
49109;SDS011;34921;52.320;16.142;2022-09-09T09:22:22;4.53;;;1.93;;
49109;SDS011;34921;52.320;16.142;2022-09-09T09:24:54;3.35;;;1.80;;
49109;SDS011;34921;52.320;16.142;2022-09-09T09:30:21;4.22;;;1.82;;
49109;SDS011;34921;52.320;16.142;2022-09-09T09:32:53;5.22;;;1.60;;
49109;SDS011;34921;52.320;16.142;2022-09-09T09:35:40;4.92;;;1.60;;
49109;SDS011;34921;52.320;16.142;2022-09-09T09:38:21;5.03;;;1.75;;
49109;SDS011;34921;52.320;16.142;2022-09-09T09:40:52;3.80;;;1.70;;
49109;SDS011;34921;52.320;16.142;2022-09-09T09:43:27;6.12;;;2.40;;
49109;SDS011;34921;52.320;16.142;2022-09-09T09:45:58;3.37;;;1.60;;
49109;SDS011;34921;52.320;16.142;2022-09-09T09:48:25;5.75;;;1.35;;
49109;SDS011;34921;52.320;16.142;2022-09-09T09:53:29;4.50;;;1.82;;
49109;SDS011;34921;52.320;16.142;2022-09-09T09:56:18;4.22;;;1.60;;
49109;SDS011;34921;52.320;16.142;2022-09-09T10:01:30;4.58;;;1.30;;
49109;SDS011;34921;52.320;16.142;2022-09-09T10:04:00;4.20;;;1.57;;
49109;SDS011;34921;52.320;16.142;2022-09-09T10:06:32;3.80;;;1.30;;
49109;SDS011;34921;52.320;16.142;2022-09-09T10:08:59;4.25;;;1.60;;
49109;SDS011;34921;52.320;16.142;2022-09-09T10:14:08;3.90;;;1.55;;
49109;SDS011;34921;52.320;16.142;2022-09-09T10:16:47;4.05;;;1.60;;
49109;SDS011;34921;52.320;16.142;2022-09-09T10:19:37;3.93;;;1.60;;
49109;SDS011;34921;52.320;16.142;2022-09-09T10:25:28;5.00;;;1.75;;
49109;SDS011;34921;52.320;16.142;2022-09-09T10:37:11;5.67;;;1.70;;
49109;SDS011;34921;52.320;16.142;2022-09-09T10:39:53;5.25;;;1.90;;
49109;SDS011;34921;52.320;16.142;2022-09-09T10:42:27;5.00;;;1.72;;
49109;SDS011;34921;52.320;16.142;2022-09-09T10:47:57;4.12;;;1.57;;
49109;SDS011;34921;52.320;16.142;2022-09-09T10:56:01;6.70;;;2.10;;
49109;SDS011;34921;52.320;16.142;2022-09-09T10:58:43;3.70;;;1.55;;
49109;SDS011;34921;52.320;16.142;2022-09-09T11:01:15;4.57;;;1.50;;
49109;SDS011;34921;52.320;16.142;2022-09-09T11:03:44;5.22;;;1.50;;
49109;SDS011;34921;52.320;16.142;2022-09-09T11:06:17;4.45;;;1.55;;
49109;SDS011;34921;52.320;16.142;2022-09-09T11:08:45;4.13;;;1.70;;
49109;SDS011;34921;52.320;16.142;2022-09-09T11:14:03;5.00;;;1.42;;
49109;SDS011;34921;52.320;16.142;2022-09-09T11:17:20;3.45;;;1.50;;
49109;SDS011;34921;52.320;16.142;2022-09-09T11:19:34;4.28;;;1.30;;
49109;SDS011;34921;52.320;16.142;2022-09-09T11:24:54;5.42;;;1.42;;
49109;SDS011;34921;52.320;16.142;2022-09-09T11:38:51;4.67;;;1.92;;
49109;SDS011;34921;52.320;16.142;2022-09-09T11:41:19;2.92;;;1.45;;
49109;SDS011;34921;52.320;16.142;2022-09-09T11:43:51;4.83;;;1.70;;
49109;SDS011;34921;52.320;16.142;2022-09-09T11:46:19;4.75;;;1.75;;
49109;SDS011;34921;52.320;16.142;2022-09-09T11:48:59;3.67;;;1.52;;
49109;SDS011;34921;52.320;16.142;2022-09-09T11:51:28;3.25;;;1.50;;
49109;SDS011;34921;52.320;16.142;2022-09-09T11:54:00;5.78;;;1.90;;
49109;SDS011;34921;52.320;16.142;2022-09-09T11:56:30;5.58;;;1.70;;
49109;SDS011;34921;52.320;16.142;2022-09-09T12:01:43;5.60;;;1.52;;
49109;SDS011;34921;52.320;16.142;2022-09-09T12:04:21;4.37;;;1.42;;
49109;SDS011;34921;52.320;16.142;2022-09-09T12:07:04;5.73;;;1.53;;
49109;SDS011;34921;52.320;16.142;2022-09-09T12:12:33;4.53;;;1.40;;
49109;SDS011;34921;52.320;16.142;2022-09-09T12:17:50;4.55;;;1.80;;
49109;SDS011;34921;52.320;16.142;2022-09-09T12:20:35;3.62;;;1.40;;
49109;SDS011;34921;52.320;16.142;2022-09-09T12:28:44;4.15;;;1.45;;
49109;SDS011;34921;52.320;16.142;2022-09-09T12:31:25;3.80;;;1.45;;
49109;SDS011;34921;52.320;16.142;2022-09-09T12:34:11;4.95;;;1.40;;
49109;SDS011;34921;52.320;16.142;2022-09-09T12:36:57;4.85;;;1.40;;
49109;SDS011;34921;52.320;16.142;2022-09-09T12:39:29;6.53;;;1.55;;
49109;SDS011;34921;52.320;16.142;2022-09-09T12:42:01;3.55;;;1.30;;
49109;SDS011;34921;52.320;16.142;2022-09-09T12:49:34;2.33;;;1.25;;
49109;SDS011;34921;52.320;16.142;2022-09-09T12:52:24;5.37;;;1.60;;
49109;SDS011;34921;52.320;16.142;2022-09-09T12:54:57;5.42;;;1.37;;
49109;SDS011;34921;52.320;16.142;2022-09-09T12:57:26;4.03;;;1.32;;
49109;SDS011;34921;52.320;16.142;2022-09-09T13:02:45;4.05;;;1.50;;
49109;SDS011;34921;52.320;16.142;2022-09-09T13:07:47;4.87;;;1.50;;
49109;SDS011;34921;52.320;16.142;2022-09-09T13:20:53;5.17;;;1.50;;
49109;SDS011;34921;52.320;16.142;2022-09-09T13:23:21;3.52;;;1.80;;
49109;SDS011;34921;52.320;16.142;2022-09-09T13:36:10;4.05;;;1.40;;
49109;SDS011;34921;52.320;16.142;2022-09-09T13:43:50;3.80;;;1.30;;
49109;SDS011;34921;52.320;16.142;2022-09-09T13:54:11;3.35;;;1.30;;
49109;SDS011;34921;52.320;16.142;2022-09-09T14:04:30;4.78;;;1.50;;
49109;SDS011;34921;52.320;16.142;2022-09-09T14:06:56;5.25;;;1.70;;
49109;SDS011;34921;52.320;16.142;2022-09-09T14:14:34;4.05;;;1.37;;
49109;SDS011;34921;52.320;16.142;2022-09-09T14:22:06;3.60;;;1.30;;
49109;SDS011;34921;52.320;16.142;2022-09-09T14:29:41;4.47;;;1.42;;
49109;SDS011;34921;52.320;16.142;2022-09-09T14:37:19;5.20;;;1.85;;
49109;SDS011;34921;52.320;16.142;2022-09-09T14:52:38;5.78;;;1.27;;
49109;SDS011;34921;52.320;16.142;2022-09-09T14:55:05;2.67;;;1.25;;
49109;SDS011;34921;52.320;16.142;2022-09-09T14:57:37;5.70;;;1.20;;
49109;SDS011;34921;52.320;16.142;2022-09-09T15:02:43;3.45;;;1.05;;
49109;SDS011;34921;52.320;16.142;2022-09-09T15:05:10;4.67;;;1.20;;
49109;SDS011;34921;52.320;16.142;2022-09-09T15:10:09;2.80;;;0.90;;
49109;SDS011;34921;52.320;16.142;2022-09-09T15:12:37;3.50;;;1.20;;
49109;SDS011;34921;52.320;16.142;2022-09-09T15:17:44;3.35;;;1.12;;
49109;SDS011;34921;52.320;16.142;2022-09-09T15:20:11;5.03;;;2.15;;
49109;SDS011;34921;52.320;16.142;2022-09-09T15:22:37;6.60;;;3.20;;
49109;SDS011;34921;52.320;16.142;2022-09-09T15:25:04;14.65;;;8.30;;
49109;SDS011;34921;52.320;16.142;2022-09-09T15:27:34;6.90;;;4.15;;
49109;SDS011;34921;52.320;16.142;2022-09-09T15:32:32;3.95;;;1.70;;
49109;SDS011;34921;52.320;16.142;2022-09-09T15:45:13;2.60;;;0.95;;
49109;SDS011;34921;52.320;16.142;2022-09-09T16:00:32;3.75;;;1.15;;
49109;SDS011;34921;52.320;16.142;2022-09-09T16:03:00;4.10;;;1.20;;
49109;SDS011;34921;52.320;16.142;2022-09-09T16:05:26;4.65;;;1.30;;
49109;SDS011;34921;52.320;16.142;2022-09-09T16:07:53;2.65;;;1.10;;
49109;SDS011;34921;52.320;16.142;2022-09-09T16:10:20;6.05;;;1.42;;
49109;SDS011;34921;52.320;16.142;2022-09-09T16:12:48;4.30;;;1.00;;
49109;SDS011;34921;52.320;16.142;2022-09-09T16:15:15;4.58;;;1.10;;
49109;SDS011;34921;52.320;16.142;2022-09-09T16:17:42;2.10;;;0.90;;
49109;SDS011;34921;52.320;16.142;2022-09-09T16:20:10;2.95;;;1.00;;
49109;SDS011;34921;52.320;16.142;2022-09-09T16:22:38;3.77;;;1.20;;
49109;SDS011;34921;52.320;16.142;2022-09-09T16:25:06;3.58;;;1.00;;
49109;SDS011;34921;52.320;16.142;2022-09-09T16:27:33;2.73;;;1.20;;
49109;SDS011;34921;52.320;16.142;2022-09-09T16:29:59;4.17;;;0.98;;
49109;SDS011;34921;52.320;16.142;2022-09-09T16:32:26;3.35;;;1.10;;
49109;SDS011;34921;52.320;16.142;2022-09-09T16:34:52;4.20;;;1.07;;
49109;SDS011;34921;52.320;16.142;2022-09-09T16:37:18;2.12;;;1.10;;
49109;SDS011;34921;52.320;16.142;2022-09-09T16:39:45;2.30;;;1.00;;
49109;SDS011;34921;52.320;16.142;2022-09-09T16:42:12;3.22;;;1.30;;
49109;SDS011;34921;52.320;16.142;2022-09-09T16:44:38;3.50;;;1.30;;
49109;SDS011;34921;52.320;16.142;2022-09-09T16:47:04;2.75;;;1.02;;
49109;SDS011;34921;52.320;16.142;2022-09-09T16:49:31;4.03;;;1.20;;
49109;SDS011;34921;52.320;16.142;2022-09-09T16:51:58;3.92;;;1.20;;
49109;SDS011;34921;52.320;16.142;2022-09-09T16:54:25;3.90;;;1.20;;
49109;SDS011;34921;52.320;16.142;2022-09-09T16:56:52;3.45;;;1.35;;
49109;SDS011;34921;52.320;16.142;2022-09-09T16:59:19;3.58;;;1.00;;
49109;SDS011;34921;52.320;16.142;2022-09-09T17:01:48;3.33;;;1.00;;
49109;SDS011;34921;52.320;16.142;2022-09-09T17:04:19;4.90;;;1.30;;
49109;SDS011;34921;52.320;16.142;2022-09-09T17:06:50;2.77;;;1.10;;
49109;SDS011;34921;52.320;16.142;2022-09-09T17:09:18;5.00;;;2.60;;
49109;SDS011;34921;52.320;16.142;2022-09-09T17:11:45;6.12;;;3.22;;
49109;SDS011;34921;52.320;16.142;2022-09-09T17:19:22;5.70;;;2.83;;
49109;SDS011;34921;52.320;16.142;2022-09-09T17:32:10;3.20;;;1.40;;
49109;SDS011;34921;52.320;16.142;2022-09-09T17:37:07;3.95;;;1.70;;
49109;SDS011;34921;52.320;16.142;2022-09-09T17:44:39;5.42;;;1.57;;
49109;SDS011;34921;52.320;16.142;2022-09-09T17:52:11;5.78;;;1.90;;
49109;SDS011;34921;52.320;16.142;2022-09-09T17:54:38;6.92;;;2.08;;
49109;SDS011;34921;52.320;16.142;2022-09-09T17:57:07;3.90;;;1.70;;
49109;SDS011;34921;52.320;16.142;2022-09-09T17:59:37;3.40;;;1.93;;
49109;SDS011;34921;52.320;16.142;2022-09-09T18:02:04;7.83;;;2.27;;
49109;SDS011;34921;52.320;16.142;2022-09-09T18:07:07;8.50;;;4.08;;
49109;SDS011;34921;52.320;16.142;2022-09-09T18:12:06;6.28;;;3.90;;
49109;SDS011;34921;52.320;16.142;2022-09-09T18:24:42;5.75;;;3.17;;
49109;SDS011;34921;52.320;16.142;2022-09-09T18:27:16;6.97;;;3.20;;
49109;SDS011;34921;52.320;16.142;2022-09-09T18:29:42;7.05;;;3.30;;
49109;SDS011;34921;52.320;16.142;2022-09-09T18:32:09;11.97;;;3.55;;
49109;SDS011;34921;52.320;16.142;2022-09-09T18:37:11;8.95;;;5.37;;
49109;SDS011;34921;52.320;16.142;2022-09-09T18:39:38;12.40;;;7.65;;
49109;SDS011;34921;52.320;16.142;2022-09-09T18:42:05;13.68;;;9.50;;
49109;SDS011;34921;52.320;16.142;2022-09-09T18:47:01;11.38;;;6.58;;
49109;SDS011;34921;52.320;16.142;2022-09-09T18:49:32;7.90;;;5.30;;
49109;SDS011;34921;52.320;16.142;2022-09-09T18:54:26;8.43;;;4.80;;
49109;SDS011;34921;52.320;16.142;2022-09-09T19:04:37;32.65;;;19.15;;
49109;SDS011;34921;52.320;16.142;2022-09-09T19:07:03;29.77;;;16.60;;
49109;SDS011;34921;52.320;16.142;2022-09-09T19:12:02;34.67;;;20.88;;
49109;SDS011;34921;52.320;16.142;2022-09-09T19:14:31;37.70;;;23.45;;
49109;SDS011;34921;52.320;16.142;2022-09-09T19:16:58;32.80;;;20.85;;
49109;SDS011;34921;52.320;16.142;2022-09-09T19:19:29;39.25;;;26.77;;
49109;SDS011;34921;52.320;16.142;2022-09-09T19:21:57;36.77;;;28.35;;
49109;SDS011;34921;52.320;16.142;2022-09-09T19:24:26;36.00;;;27.20;;
49109;SDS011;34921;52.320;16.142;2022-09-09T19:26:55;42.25;;;32.03;;
49109;SDS011;34921;52.320;16.142;2022-09-09T19:29:24;21.17;;;15.57;;
49109;SDS011;34921;52.320;16.142;2022-09-09T19:31:53;26.07;;;19.65;;
49109;SDS011;34921;52.320;16.142;2022-09-09T19:34:20;22.70;;;17.73;;
49109;SDS011;34921;52.320;16.142;2022-09-09T19:36:46;14.00;;;9.65;;
49109;SDS011;34921;52.320;16.142;2022-09-09T19:39:13;17.60;;;9.28;;
49109;SDS011;34921;52.320;16.142;2022-09-09T19:41:40;12.10;;;7.67;;
49109;SDS011;34921;52.320;16.142;2022-09-09T19:44:07;13.38;;;5.95;;
49109;SDS011;34921;52.320;16.142;2022-09-09T19:46:37;11.40;;;5.53;;
49109;SDS011;34921;52.320;16.142;2022-09-09T19:49:05;10.90;;;6.35;;
49109;SDS011;34921;52.320;16.142;2022-09-09T19:51:32;11.00;;;5.42;;
49109;SDS011;34921;52.320;16.142;2022-09-09T19:54:06;12.43;;;5.47;;
49109;SDS011;34921;52.320;16.142;2022-09-09T19:56:35;12.10;;;5.47;;